Time;durP1;ratioP1;P1;durP2;ratioP2;P2;SDS_P1;SDS_P2;PMS_P1;PMS_P2;Temp;Humidity;BMP_temperature;BMP_pressure;BME280_temperature;BME280_humidity;BME280_pressure;Samples;Min_cycle;Max_cycle;Signal;HPM_P1;HPM_P2
2023/01/12 00:02:07;;;;;;;3.58;1.40;;;;;;;18.16;47.74;100755.97;5025185;28;20076;-53
2023/01/12 00:04:32;;;;;;;3.35;1.55;;;;;;;18.18;47.43;100756.63;5025151;28;20038;-49
2023/01/12 00:06:58;;;;;;;4.47;1.63;;;;;;;18.17;47.80;100765.72;5025009;28;20029;-49
2023/01/12 00:09:24;;;;;;;3.78;1.38;;;;;;;18.16;47.50;100756.81;5025098;28;20086;-50
2023/01/12 00:11:49;;;;;;;4.28;1.70;;;;;;;18.17;47.56;100757.63;5025163;28;20068;-54
2023/01/12 00:14:14;;;;;;;5.20;2.28;;;;;;;18.15;47.74;100749.75;5025041;28;20030;-51
2023/01/12 00:16:40;;;;;;;5.68;1.83;;;;;;;18.12;47.50;100738.47;5023948;28;20502;-52
2023/01/12 00:19:23;;;;;;;4.22;1.42;;;;;;;18.14;47.64;100731.09;5024760;28;20030;-51
2023/01/12 00:21:55;;;;;;;4.50;2.35;;;;;;;18.14;47.54;100728.41;5024905;28;20025;-52
2023/01/12 00:24:21;;;;;;;5.65;1.80;;;;;;;18.07;47.56;100714.75;5024603;28;20030;-54
2023/01/12 00:26:47;;;;;;;3.78;1.77;;;;;;;18.13;47.53;100724.84;5024691;28;20033;-51
2023/01/12 00:29:13;;;;;;;4.72;1.80;;;;;;;18.13;47.84;100730.22;5025120;28;20030;-55
2023/01/12 00:31:38;;;;;;;3.53;1.40;;;;;;;18.12;47.51;100725.03;5028832;28;20034;-55
2023/01/12 00:34:04;;;;;;;4.30;1.65;;;;;;;18.12;47.57;100725.03;5028604;28;20021;-52
2023/01/12 00:36:29;;;;;;;3.63;1.70;;;;;;;18.12;47.50;100733.94;5028906;28;20062;-51
2023/01/12 00:38:54;;;;;;;2.67;1.35;;;;;;;18.10;47.52;100730.56;5028497;28;20034;-53
2023/01/12 00:46:48;;;;;;;4.93;2.15;;;;;;;18.04;47.57;100715.09;5028088;28;20084;-53
2023/01/12 00:49:13;;;;;;;5.57;2.60;;;;;;;18.06;47.74;100709.56;5028751;28;20026;-54
2023/01/12 00:51:39;;;;;;;3.00;1.55;;;;;;;18.08;47.49;100712.91;5028518;28;20447;-53
2023/01/12 00:54:07;;;;;;;3.17;1.55;;;;;;;18.07;47.73;100712.06;5028533;28;20026;-55
2023/01/12 00:56:33;;;;;;;3.30;1.73;;;;;;;18.07;47.54;100712.06;5028497;28;20029;-53
2023/01/12 00:58:58;;;;;;;3.88;1.75;;;;;;;18.04;47.77;100701.63;5028580;28;20026;-54
2023/01/12 01:01:23;;;;;;;2.88;1.55;;;;;;;18.06;47.74;100712.25;5028365;28;20068;-56
2023/01/12 01:03:48;;;;;;;4.63;2.10;;;;;;;18.06;47.56;100701.50;5027936;28;20030;-54
2023/01/12 01:06:14;;;;;;;4.38;1.80;;;;;;;18.02;47.72;100692.91;5027915;28;20026;-51
2023/01/12 01:08:39;;;;;;;3.28;1.50;;;;;;;18.04;47.87;100704.31;5028098;28;20032;-55
2023/01/12 01:11:10;;;;;;;4.32;1.85;;;;;;;18.04;47.55;100698.94;5028369;28;20117;-55
2023/01/12 01:13:39;;;;;;;3.95;1.70;;;;;;;18.03;47.71;100691.91;5028241;28;20022;-54
2023/01/12 01:16:05;;;;;;;2.72;1.40;;;;;;;18.03;47.82;100689.19;5028317;28;20021;-52
2023/01/12 01:18:31;;;;;;;3.90;2.05;;;;;;;18.03;47.86;100688.38;5027881;28;20030;-53
2023/01/12 01:20:57;;;;;;;4.50;1.77;;;;;;;17.97;47.65;100677.28;5027944;28;20057;-52
2023/01/12 01:23:24;;;;;;;2.67;1.38;;;;;;;18.02;47.65;100678.63;5027994;28;20109;-55
2023/01/12 01:25:49;;;;;;;3.33;1.60;;;;;;;18.01;47.79;100679.59;5027755;28;20029;-51
2023/01/12 01:28:16;;;;;;;3.65;1.50;;;;;;;18.02;47.84;100673.25;5027945;28;20109;-53
2023/01/12 01:30:41;;;;;;;2.33;1.30;;;;;;;18.02;47.60;100671.38;5027795;28;20371;-54
2023/01/12 01:33:06;;;;;;;4.18;1.40;;;;;;;18.01;47.90;100671.53;5027700;28;20040;-50
2023/01/12 01:35:31;;;;;;;3.78;1.70;;;;;;;17.99;47.88;100664.47;5005204;28;20041;-55
2023/01/12 01:37:57;;;;;;;4.07;1.58;;;;;;;17.97;47.69;100654.91;5007805;28;20050;-52
2023/01/12 01:40:22;;;;;;;2.17;1.40;;;;;;;17.97;47.74;100654.91;5007535;28;20061;-53
2023/01/12 01:42:48;;;;;;;4.25;1.40;;;;;;;17.99;47.92;100656.41;5006958;28;20196;-55
2023/01/12 01:45:15;;;;;;;4.97;1.50;;;;;;;17.98;47.73;100654.75;5007914;28;20045;-53
2023/01/12 01:47:50;;;;;;;2.92;1.65;;;;;;;17.97;47.79;100653.06;5007903;28;20080;-52
2023/01/12 01:50:19;;;;;;;4.05;1.70;;;;;;;17.92;47.78;100636.56;4990236;28;20431;-51
2023/01/12 01:52:46;;;;;;;;;;;;;;;17.96;47.80;100648.66;4990804;28;20030;-52
2023/01/12 01:55:16;;;;;;;2.80;1.48;;;;;;;17.96;47.86;100639.75;4992459;28;19910;-53
2023/01/12 01:57:50;;;;;;;3.78;1.58;;;;;;;17.94;47.89;100645.31;4993527;28;20025;-51
2023/01/12 02:00:16;;;;;;;3.88;1.70;;;;;;;17.95;47.62;100632.72;5027172;28;20036;-51
2023/01/12 02:02:43;;;;;;;3.45;1.55;;;;;;;17.94;47.93;100631.88;5027244;28;20081;-55
2023/01/12 02:05:09;;;;;;;3.70;1.55;;;;;;;17.87;47.65;100611.19;5009098;28;20021;-52
2023/01/12 02:07:34;;;;;;;2.72;1.55;;;;;;;17.94;47.76;100626.50;5009017;28;20093;-53
2023/01/12 02:10:01;;;;;;;3.28;1.60;;;;;;;17.92;47.59;100624.97;5027188;28;20096;-54
2023/01/12 02:18:18;;;;;;;3.85;1.58;;;;;;;17.94;47.59;100606.84;5011607;28;20083;-52
2023/01/12 02:21:01;;;;;;;3.30;1.58;;;;;;;17.92;47.78;100593.53;5026841;28;20037;-53
2023/01/12 02:23:30;;;;;;;3.53;1.38;;;;;;;17.91;47.79;100594.53;5026752;28;20076;-56
2023/01/12 02:26:14;;;;;;;2.65;1.60;;;;;;;17.91;47.71;100594.53;5026787;28;20037;-52
2023/01/12 02:29:18;;;;;;;2.22;1.27;;;;;;;17.91;47.78;100582.94;5026753;28;20026;-53
2023/01/12 02:31:55;;;;;;;2.13;1.50;;;;;;;17.90;47.84;100571.34;5026866;28;20018;-52
2023/01/12 02:34:26;;;;;;;4.13;1.75;;;;;;;17.91;47.83;100570.34;5026361;28;20022;-53
2023/01/12 02:37:00;;;;;;;4.00;1.83;;;;;;;17.90;47.61;100565.97;5026427;28;20076;-54
2023/01/12 02:39:29;;;;;;;2.65;1.38;;;;;;;17.89;47.81;100553.56;5006867;28;20043;-56
2023/01/12 02:44:55;;;;;;;3.00;1.52;;;;;;;17.88;47.48;100541.13;5005469;28;19917;-54
2023/01/12 02:47:56;;;;;;;2.97;1.40;;;;;;;17.86;47.72;100542.28;5006910;28;20038;-55
2023/01/12 02:50:35;;;;;;;4.43;2.53;;;;;;;17.86;47.71;100535.06;5005564;28;20045;-55
2023/01/12 02:53:05;;;;;;;5.13;2.08;;;;;;;17.86;47.82;100535.06;5005272;28;20054;-56
2023/01/12 02:55:30;;;;;;;3.15;1.88;;;;;;;17.81;47.80;100513.22;4985614;28;20102;-55
2023/01/12 02:57:56;;;;;;;4.13;1.40;;;;;;;17.86;47.52;100528.84;4985946;28;20034;-53
2023/01/12 03:00:21;;;;;;;3.67;1.90;;;;;;;17.85;48.00;100519.94;4993644;28;20034;-52
2023/01/12 03:02:47;;;;;;;3.72;1.92;;;;;;;17.84;47.89;100518.25;5005375;28;20030;-55
2023/01/12 03:05:12;;;;;;;4.43;1.60;;;;;;;17.84;47.86;100515.56;5005902;28;20030;-56
2023/01/12 03:07:43;;;;;;;2.35;1.27;;;;;;;17.83;47.88;100505.81;5006436;28;20049;-55
2023/01/12 03:10:20;;;;;;;2.30;1.20;;;;;;;17.83;47.82;100521.94;5006386;28;20037;-54
2023/01/12 03:12:47;;;;;;;2.45;1.40;;;;;;;17.83;48.01;100519.25;5005150;28;20030;-56
2023/01/12 03:15:14;;;;;;;4.22;1.70;;;;;;;17.82;47.77;100504.13;5004878;28;20042;-56
2023/01/12 03:18:02;;;;;;;2.55;1.40;;;;;;;17.79;47.80;100503.63;5004821;28;20034;-51
2023/01/12 03:20:33;;;;;;;2.50;1.17;;;;;;;17.82;47.90;100503.31;5005986;28;20035;-53
2023/01/12 03:23:03;;;;;;;2.78;1.40;;;;;;;17.77;47.79;100497.59;5006341;28;20032;-51
2023/01/12 03:25:30;;;;;;;2.30;1.20;;;;;;;17.81;47.83;100498.94;5006275;28;20113;-50
2023/01/12 03:27:57;;;;;;;2.30;1.52;;;;;;;17.81;47.77;100496.25;5005164;28;20056;-52
2023/01/12 03:30:39;;;;;;;2.97;1.27;;;;;;;17.81;47.72;100493.56;5004917;28;20084;-49
2023/01/12 03:33:05;;;;;;;3.47;1.48;;;;;;;17.80;47.69;100481.97;5004457;28;20396;-52
2023/01/12 03:35:35;;;;;;;2.40;1.67;;;;;;;17.79;47.92;100482.94;4990921;28;20117;-54
2023/01/12 03:38:08;;;;;;;2.15;1.23;;;;;;;17.79;47.67;100477.56;5004255;28;20288;-51
2023/01/12 03:40:38;;;;;;;3.25;1.58;;;;;;;17.79;47.80;100471.38;5005741;28;20030;-53
2023/01/12 03:43:27;;;;;;;3.42;1.30;;;;;;;17.79;47.80;100463.28;5005736;28;20026;-55
2023/01/12 03:46:01;;;;;;;4.28;1.60;;;;;;;17.78;47.73;100467.84;5005512;28;20034;-53
2023/01/12 03:48:44;;;;;;;2.95;1.63;;;;;;;17.78;48.03;100461.63;5004217;28;20018;-53
2023/01/12 03:51:22;;;;;;;2.53;1.20;;;;;;;17.77;47.72;100465.34;5005432;28;20117;-54
2023/01/12 03:53:48;;;;;;;3.25;1.80;;;;;;;17.75;47.95;100446.66;5004123;28;20041;-55
2023/01/12 03:56:15;;;;;;;3.15;1.73;;;;;;;17.68;47.67;100433.06;5003833;28;20030;-53
2023/01/12 03:58:40;;;;;;;2.50;1.30;;;;;;;17.74;48.06;100437.75;5004232;28;20023;-53
2023/01/12 04:01:06;;;;;;;3.35;1.40;;;;;;;17.74;47.86;100421.63;5005495;28;20102;-53
2023/01/12 04:03:31;;;;;;;3.00;1.40;;;;;;;17.74;47.82;100415.41;5005176;28;20026;-53
2023/01/12 04:05:56;;;;;;;3.55;1.70;;;;;;;17.72;47.81;100404.81;5004436;28;20053;-55
2023/01/12 04:08:22;;;;;;;3.85;1.65;;;;;;;17.73;47.75;100408.34;5005487;28;20041;-53
2023/01/12 04:10:47;;;;;;;4.75;1.73;;;;;;;17.72;47.95;100394.06;5005280;28;20112;-53
2023/01/12 04:13:12;;;;;;;1.48;1.08;;;;;;;17.71;48.15;100383.47;5005221;28;20034;-52
2023/01/12 04:15:41;;;;;;;3.67;1.55;;;;;;;17.71;47.90;100381.63;5005146;28;20086;-54
2023/01/12 04:18:07;;;;;;;2.60;1.33;;;;;;;17.68;47.80;100370.38;5005176;28;20026;-55
2023/01/12 04:20:33;;;;;;;2.67;1.67;;;;;;;17.70;48.18;100371.88;5005262;28;20038;-54
2023/01/12 04:22:58;;;;;;;3.78;1.83;;;;;;;17.70;48.02;100365.66;5005421;28;20047;-50
2023/01/12 04:25:23;;;;;;;6.18;1.77;;;;;;;17.69;47.96;100362.13;5005103;28;20027;-53
2023/01/12 04:27:52;;;;;;;1.48;1.10;;;;;;;17.70;47.77;100352.22;5004190;28;20431;-53
2023/01/12 04:30:19;;;;;;;3.83;1.52;;;;;;;17.68;48.01;100338.97;5005435;28;20019;-54
2023/01/12 04:32:45;;;;;;;2.38;1.30;;;;;;;17.68;47.94;100338.97;4996608;28;20034;-50
2023/01/12 04:35:11;;;;;;;3.42;1.42;;;;;;;17.68;47.76;100322.81;5002265;28;20057;-50
2023/01/12 04:37:37;;;;;;;2.95;1.30;;;;;;;17.68;47.96;100303.16;5010533;28;20046;-52
2023/01/12 04:40:03;;;;;;;3.05;1.35;;;;;;;17.68;47.84;100295.94;5024980;28;20596;-48
2023/01/12 04:45:12;;;;;;;1.88;1.15;;;;;;;17.67;48.04;100253.09;5024947;28;20096;-50
2023/01/12 04:47:38;;;;;;;2.20;1.50;;;;;;;17.66;47.87;100233.44;5024661;28;20021;-49
2023/01/12 04:50:04;;;;;;;3.15;1.45;;;;;;;17.66;47.82;100221.84;5024649;28;20025;-50
2023/01/12 04:52:29;;;;;;;2.42;1.20;;;;;;;17.66;47.95;100208.41;5024365;28;20025;-52
2023/01/12 04:54:54;;;;;;;2.17;1.20;;;;;;;17.66;48.15;100208.41;5024529;28;20032;-51
2023/01/12 04:57:20;;;;;;;1.88;1.10;;;;;;;17.65;48.14;100196.81;5024191;28;20363;-51
2023/01/12 04:59:45;;;;;;;1.73;1.30;;;;;;;17.65;48.32;100172.63;5021217;28;20054;-48
2023/01/12 05:02:10;;;;;;;3.13;1.30;;;;;;;17.65;48.38;100172.63;5004635;28;20482;-48
2023/01/12 05:04:35;;;;;;;2.90;1.30;;;;;;;17.61;48.60;100176.69;5018120;28;20025;-52
2023/01/12 05:07:01;;;;;;;3.08;1.25;;;;;;;17.64;48.51;100181.72;5023378;28;20483;-53
2023/01/12 05:12:10;;;;;;;3.15;1.10;;;;;;;17.68;48.62;100180.34;5020173;28;20450;-49
2023/01/12 05:14:35;;;;;;;2.03;1.10;;;;;;;17.68;48.78;100172.28;5023936;28;20022;-51
2023/01/12 05:17:01;;;;;;;2.00;1.00;;;;;;;17.69;48.75;100165.88;5027024;28;20033;-50
2023/01/12 05:19:26;;;;;;;2.88;1.40;;;;;;;17.69;48.73;100151.59;5027690;28;20030;-52
2023/01/12 05:21:51;;;;;;;2.78;1.40;;;;;;;17.70;48.89;100167.53;5027115;28;20084;-53
2023/01/12 05:24:17;;;;;;;1.40;1.10;;;;;;;17.70;48.82;100153.25;5026901;28;20030;-51
2023/01/12 05:26:42;;;;;;;2.25;1.17;;;;;;;17.70;48.84;100145.19;5027346;28;20029;-51
2023/01/12 05:29:10;;;;;;;4.80;2.55;;;;;;;17.69;48.98;100140.84;5027331;28;20030;-49
2023/01/12 05:31:35;;;;;;;3.25;1.17;;;;;;;17.72;48.97;100153.94;5009382;28;20474;-48
2023/01/12 05:34:00;;;;;;;2.50;1.20;;;;;;;17.72;49.09;100138.63;5025784;28;20025;-53
2023/01/12 05:36:26;;;;;;;1.70;1.08;;;;;;;17.73;48.95;100132.25;5026856;28;20030;-56
2023/01/12 05:38:51;;;;;;;3.63;1.58;;;;;;;17.74;48.81;100135.78;5027122;28;20046;-55
2023/01/12 05:41:16;;;;;;;2.30;1.10;;;;;;;17.74;49.05;100133.09;5026179;28;20025;-56
2023/01/12 05:43:51;;;;;;;1.90;1.20;;;;;;;17.75;49.25;100140.16;5026822;28;20095;-55
2023/01/12 05:46:20;;;;;;;2.90;1.33;;;;;;;17.74;49.23;100139.31;5027226;28;20081;-55
2023/01/12 05:48:45;;;;;;;;;;;;;;;17.74;49.40;100133.09;5025731;28;20085;-55
2023/01/12 05:51:11;;;;;;;3.45;1.60;;;;;;;17.76;49.26;100124.88;5026523;28;19917;-55
2023/01/12 05:53:37;;;;;;;3.15;1.35;;;;;;;17.76;49.34;100130.25;5026279;28;20026;-55
2023/01/12 05:56:07;;;;;;;1.77;1.20;;;;;;;17.76;49.47;100133.78;5009125;28;20033;-50
2023/01/12 05:58:33;;;;;;;3.40;1.30;;;;;;;17.74;49.56;100120.50;5026357;28;20077;-48
2023/01/12 06:00:58;;;;;;;2.10;1.15;;;;;;;17.75;49.40;100129.38;5027305;28;20037;-51
2023/01/12 06:03:23;;;;;;;1.67;1.10;;;;;;;17.76;49.45;100133.78;5026183;28;20042;-48
2023/01/12 06:05:57;;;;;;;3.55;1.20;;;;;;;17.74;49.49;100122.34;5025710;28;20025;-48
2023/01/12 06:08:22;;;;;;;2.45;1.60;;;;;;;17.79;49.21;100122.63;5021092;28;20064;-48
2023/01/12 06:10:47;;;;;;;2.88;1.67;;;;;;;17.80;49.32;100126.16;5026613;28;20033;-51
2023/01/12 06:16:05;;;;;;;3.65;1.25;;;;;;;17.81;49.37;100133.22;5025553;28;20041;-48
2023/01/12 06:18:34;;;;;;;1.65;1.05;;;;;;;17.81;49.32;100135.91;5007703;28;20076;-47
2023/01/12 06:21:00;;;;;;;3.38;1.02;;;;;;;17.79;49.52;100125.31;5011118;28;20399;-49
2023/01/12 06:23:25;;;;;;;2.28;1.10;;;;;;;17.82;49.27;100140.28;5006942;28;20046;-50
2023/01/12 06:25:50;;;;;;;2.03;1.10;;;;;;;17.81;49.56;100134.06;5006734;28;20053;-53
2023/01/12 06:28:16;;;;;;;2.53;1.30;;;;;;;17.82;49.41;100135.72;5006004;28;20026;-50
2023/01/12 06:30:41;;;;;;;3.97;1.25;;;;;;;17.83;49.16;100141.94;5007278;28;20061;-49
2023/01/12 06:33:06;;;;;;;3.28;1.33;;;;;;;17.82;49.28;100130.34;5007145;28;20038;-48
2023/01/12 06:35:32;;;;;;;2.58;1.00;;;;;;;17.82;49.13;100133.03;5025897;28;20458;-53
2023/01/12 06:37:57;;;;;;;4.57;1.50;;;;;;;17.83;49.29;100134.72;5025312;28;20046;-49
2023/01/12 06:40:22;;;;;;;2.15;1.25;;;;;;;17.83;49.11;100137.41;5026573;28;20165;-47
2023/01/12 06:42:48;;;;;;;1.80;1.20;;;;;;;17.83;49.35;100141.94;5026056;28;20068;-55
2023/01/12 06:45:13;;;;;;;1.65;0.93;;;;;;;17.84;49.12;100140.91;5025938;28;20030;-53
2023/01/12 06:47:46;;;;;;;2.00;0.90;;;;;;;17.85;49.28;100145.31;5025747;28;20040;-49
2023/01/12 06:50:12;;;;;;;2.30;1.02;;;;;;;17.84;49.16;100148.97;5026004;28;20018;-49
2023/01/12 06:52:37;;;;;;;1.48;0.88;;;;;;;17.84;49.06;100149.84;5026184;28;20110;-49
2023/01/12 06:55:03;;;;;;;2.25;1.38;;;;;;;17.85;49.18;100145.31;5025672;28;20064;-54
2023/01/12 06:57:28;;;;;;;2.10;0.90;;;;;;;17.85;49.27;100153.38;5026149;28;20018;-50
2023/01/12 06:59:53;;;;;;;1.67;0.90;;;;;;;17.86;49.25;100150.50;5026051;28;20378;-53
2023/01/12 07:02:19;;;;;;;2.63;1.00;;;;;;;17.86;49.04;100150.50;5025970;28;20033;-51
2023/01/12 07:04:44;;;;;;;1.73;0.98;;;;;;;17.87;49.17;100151.31;5025574;28;20030;-50
2023/01/12 07:07:09;;;;;;;1.90;1.20;;;;;;;17.88;48.85;100135.03;5025991;28;20045;-47
2023/01/12 07:09:35;;;;;;;1.60;0.90;;;;;;;17.83;48.96;100126.66;5026032;28;20033;-53
2023/01/12 07:12:01;;;;;;;1.15;1.00;;;;;;;17.88;48.91;100153.00;5026063;28;20048;-48
2023/01/12 07:14:27;;;;;;;1.25;0.80;;;;;;;17.89;49.17;100144.75;5025827;28;20053;-48
2023/01/12 07:16:52;;;;;;;2.15;1.10;;;;;;;17.89;49.09;100143.94;5025845;28;20100;-49
2023/01/12 07:19:17;;;;;;;1.60;1.00;;;;;;;17.89;48.90;100146.63;5025616;28;20128;-54
2023/01/12 07:21:43;;;;;;;1.77;0.90;;;;;;;17.89;48.97;100139.38;5025544;28;20032;-48
2023/01/12 07:24:08;;;;;;;2.38;1.00;;;;;;;17.90;49.12;100148.28;5025495;28;20026;-50
2023/01/12 07:26:34;;;;;;;2.10;1.08;;;;;;;17.88;48.93;100153.00;5025396;28;20033;-53
2023/01/12 07:28:59;;;;;;;2.03;1.10;;;;;;;17.90;48.67;100149.13;5025688;28;20025;-49
2023/01/12 07:31:24;;;;;;;1.90;0.95;;;;;;;17.92;49.16;100144.38;5025455;28;20026;-52
2023/01/12 07:33:52;;;;;;;2.45;0.90;;;;;;;17.92;49.10;100152.44;5018735;28;20651;-51
2023/01/12 07:36:17;;;;;;;2.60;1.13;;;;;;;17.94;48.93;100163.03;5022551;28;20544;-50
2023/01/12 07:38:43;;;;;;;2.45;1.20;;;;;;;17.93;49.23;100156.00;5024869;28;20105;-51
2023/01/12 07:42:22;;;;;;;1.45;1.00;;;;;;;17.92;48.77;100152.44;5025131;28;20109;-50
2023/01/12 07:43:54;;;;;;;1.60;0.90;;;;;;;17.94;48.88;100165.72;5024884;28;20100;-50
2023/01/12 07:46:19;;;;;;;1.60;0.75;;;;;;;17.94;48.83;100168.41;5025050;28;20038;-51
2023/01/12 07:48:45;;;;;;;1.73;0.90;;;;;;;18.03;48.38;100166.50;5024995;28;20030;-48
2023/01/12 07:51:10;;;;;;;1.27;0.80;;;;;;;18.05;48.70;100172.53;5024685;28;20061;-53
2023/01/12 07:53:36;;;;;;;2.40;1.10;;;;;;;18.09;48.66;100169.28;5024650;28;20041;-53
2023/01/12 07:56:01;;;;;;;2.13;1.10;;;;;;;18.10;48.31;100176.38;5019437;28;20030;-51
2023/01/12 07:58:29;;;;;;;1.88;0.93;;;;;;;18.14;48.24;100174.16;5007607;28;20026;-50
2023/01/12 08:00:57;;;;;;;2.33;1.30;;;;;;;18.14;48.49;100174.97;5025185;28;20046;-52
2023/01/12 08:03:23;;;;;;;2.72;0.90;;;;;;;18.15;48.14;100170.44;5024948;28;20101;-51
2023/01/12 08:05:48;;;;;;;1.70;0.85;;;;;;;18.17;48.35;100173.75;5024432;28;20033;-49
2023/01/12 08:08:13;;;;;;;1.95;0.80;;;;;;;18.18;48.08;100176.31;5024661;28;20041;-49
2023/01/12 08:10:39;;;;;;;2.08;0.80;;;;;;;18.17;48.30;100168.38;5024325;28;20080;-50
2023/01/12 08:13:05;;;;;;;1.27;0.70;;;;;;;18.20;48.05;100181.47;5024734;28;20356;-50
2023/01/12 08:15:34;;;;;;;2.03;0.80;;;;;;;18.20;48.31;100193.09;5019975;28;20085;-53
2023/01/12 08:18:02;;;;;;;1.13;0.73;;;;;;;18.19;48.28;100186.03;5001769;28;20478;-52
2023/01/12 08:20:31;;;;;;;0.82;0.70;;;;;;;18.12;48.45;100181.56;5006543;28;20044;-50
2023/01/12 08:23:08;;;;;;;0.77;0.68;;;;;;;18.16;48.89;100199.84;5024913;28;20053;-52
2023/01/12 08:25:37;;;;;;;1.38;0.70;;;;;;;18.12;48.51;100198.53;5006801;28;20413;-57
2023/01/12 08:28:04;;;;;;;1.92;0.70;;;;;;;18.13;49.03;100207.44;5007624;28;20057;-53
2023/01/12 08:30:30;;;;;;;2.35;0.80;;;;;;;18.11;48.82;100202.25;5007219;28;20027;-57
2023/01/12 08:32:57;;;;;;;1.42;0.70;;;;;;;18.12;49.08;100211.97;5024931;28;20040;-55
2023/01/12 08:35:24;;;;;;;0.70;0.70;;;;;;;18.11;48.85;100210.31;5021889;28;20030;-53
2023/01/12 08:37:49;;;;;;;2.08;0.70;;;;;;;18.13;49.09;100223.56;5006870;28;20834;-53
2023/01/12 08:40:15;;;;;;;3.25;0.90;;;;;;;18.13;49.15;100212.81;5024213;28;20025;-54
2023/01/12 08:42:40;;;;;;;0.60;0.60;;;;;;;18.14;49.02;100214.50;5024707;28;20049;-53
2023/01/12 08:45:07;;;;;;;2.55;0.95;;;;;;;18.14;49.04;100211.81;5024328;28;20028;-53
2023/01/12 08:47:32;;;;;;;1.50;0.80;;;;;;;18.14;49.13;100219.88;5024188;28;20087;-53
2023/01/12 08:49:59;;;;;;;1.10;0.70;;;;;;;18.15;49.19;100213.47;5023982;28;20030;-53
2023/01/12 08:52:28;;;;;;;2.53;0.90;;;;;;;18.15;48.96;100216.19;5028131;28;20046;-55
2023/01/12 08:54:53;;;;;;;2.17;0.82;;;;;;;18.15;49.19;100214.31;5018628;28;20029;-55
2023/01/12 08:57:18;;;;;;;0.60;0.60;;;;;;;18.17;48.88;100225.72;5027991;28;20026;-55
2023/01/12 08:59:44;;;;;;;1.45;0.95;;;;;;;18.14;48.95;100233.34;5027860;28;20044;-55
2023/01/12 09:02:10;;;;;;;1.13;0.70;;;;;;;18.19;49.17;100228.25;5027990;28;20057;-52
2023/01/12 09:04:38;;;;;;;0.50;0.50;;;;;;;18.20;49.14;100229.91;5027457;28;20030;-52
2023/01/12 09:07:03;;;;;;;0.57;0.47;;;;;;;18.21;49.09;100242.34;5027964;28;20375;-53
2023/01/12 09:09:28;;;;;;;1.35;0.80;;;;;;;18.20;48.85;100246.91;5027914;28;20034;-54
2023/01/12 09:11:54;;;;;;;1.58;0.82;;;;;;;18.04;49.10;100225.50;5027988;28;20025;-54
2023/01/12 09:14:19;;;;;;;0.70;0.70;;;;;;;18.22;48.93;100241.31;5027798;28;20565;-55
2023/01/12 09:16:44;;;;;;;0.60;0.60;;;;;;;18.18;48.93;100234.63;5027732;28;20018;-54
2023/01/12 09:19:10;;;;;;;2.05;0.60;;;;;;;18.24;49.01;100258.13;5027077;28;20060;-51
2023/01/12 09:21:37;;;;;;;0.80;0.63;;;;;;;18.25;49.00;100257.13;5027472;28;20034;-52
2023/01/12 09:24:03;;;;;;;0.77;0.50;;;;;;;18.26;49.09;100263.31;5027692;28;20036;-53
2023/01/12 09:26:30;;;;;;;0.98;0.80;;;;;;;18.26;49.09;100272.22;5026727;28;20452;-51
2023/01/12 09:29:00;;;;;;;1.45;0.52;;;;;;;18.27;48.83;100270.41;5027944;28;20028;-48
2023/01/12 09:31:26;;;;;;;0.75;0.70;;;;;;;18.27;49.10;100273.09;5010640;28;20030;-56
2023/01/12 09:33:53;;;;;;;1.98;0.82;;;;;;;18.22;48.99;100270.91;5014189;28;20459;-55
2023/01/12 09:36:21;;;;;;;0.88;0.80;;;;;;;18.28;48.82;100294.44;5014759;28;20023;-50
2023/01/12 09:38:47;;;;;;;1.63;0.80;;;;;;;18.29;48.97;100293.41;5026118;28;20122;-51
2023/01/12 09:46:57;;;;;;;1.00;0.60;;;;;;;18.30;48.91;100276.25;5027161;28;20030;-49
2023/01/12 09:47:02;;;;;;;1.60;0.90;;;;;;;18.32;48.87;100295.75;5012151;28;20102;-55
2023/01/12 09:49:34;;;;;;;0.68;0.60;;;;;;;18.32;49.09;100290.38;5027281;28;20040;-54
2023/01/12 09:52:13;;;;;;;1.38;0.70;;;;;;;18.33;48.86;100304.66;5027161;28;20446;-51
2023/01/12 09:54:39;;;;;;;1.33;0.73;;;;;;;18.33;49.08;100308.19;5026772;28;20062;-51
2023/01/12 09:57:37;;;;;;;0.60;0.60;;;;;;;18.32;48.80;100311.06;5026926;28;20029;-54
2023/01/12 10:00:15;;;;;;;0.90;0.60;;;;;;;18.34;48.81;100315.22;5026309;28;20085;-53
2023/01/12 10:02:44;;;;;;;0.77;0.60;;;;;;;18.35;49.10;100321.44;5025865;28;20030;-50
2023/01/12 10:05:30;;;;;;;0.65;0.50;;;;;;;18.35;48.89;100324.16;5008999;28;20041;-50
2023/01/12 10:07:55;;;;;;;0.60;0.60;;;;;;;18.36;48.96;100317.75;5026681;28;20037;-51
2023/01/12 10:10:21;;;;;;;0.50;0.50;;;;;;;18.37;49.07;100327.50;5026786;28;20021;-52
2023/01/12 10:12:54;;;;;;;1.10;0.70;;;;;;;18.31;49.04;100322.81;5008998;28;20040;-49
2023/01/12 10:15:28;;;;;;;0.50;0.50;;;;;;;18.37;49.20;100336.41;5007303;28;20026;-48
2023/01/12 10:18:03;;;;;;;1.58;0.63;;;;;;;18.38;49.03;100334.56;5008451;28;20018;-53
2023/01/12 10:20:42;;;;;;;1.50;0.70;;;;;;;18.38;49.09;100332.69;5005399;28;20038;-51
2023/01/12 10:23:07;;;;;;;1.95;0.60;;;;;;;18.40;49.01;100338.75;5006876;28;20482;-53
2023/01/12 10:25:46;;;;;;;0.85;0.70;;;;;;;18.41;48.72;100339.59;5017194;28;20486;-52
2023/01/12 10:28:26;;;;;;;0.88;0.50;;;;;;;18.41;48.85;100344.97;5026988;28;20033;-47
2023/01/12 10:30:52;;;;;;;0.50;0.50;;;;;;;18.41;48.88;100345.81;5009116;28;20036;-52
2023/01/12 10:33:19;;;;;;;0.88;0.60;;;;;;;18.40;48.98;100346.84;5016197;28;20030;-57
2023/01/12 10:35:48;;;;;;;1.20;0.55;;;;;;;18.41;48.85;100342.28;5016810;28;20453;-52
2023/01/12 10:38:21;;;;;;;0.80;0.80;;;;;;;18.41;49.20;100347.66;4995787;28;20050;-53
2023/01/12 10:41:17;;;;;;;1.85;0.60;;;;;;;18.43;49.06;100341.06;4987403;28;20043;-52
2023/01/12 10:44:02;;;;;;;0.60;0.60;;;;;;;18.44;48.94;100348.16;5005256;28;20034;-51
2023/01/12 10:46:34;;;;;;;0.43;0.43;;;;;;;18.45;48.85;100349.81;5006128;28;20030;-51
2023/01/12 10:49:19;;;;;;;0.50;0.50;;;;;;;18.46;48.90;100348.78;5006595;28;20018;-51
2023/01/12 10:52:04;;;;;;;0.40;0.40;;;;;;;18.45;48.94;100349.81;4986924;28;20054;-51
2023/01/12 10:54:35;;;;;;;1.08;0.63;;;;;;;18.46;48.85;100348.78;4985986;28;20037;-52
2023/01/12 10:57:19;;;;;;;0.60;0.60;;;;;;;18.45;48.75;100344.44;5003556;28;20381;-53
2023/01/12 10:59:57;;;;;;;0.50;0.50;;;;;;;18.48;48.79;100346.78;5006290;28;20025;-50
2023/01/12 11:02:25;;;;;;;0.75;0.55;;;;;;;18.48;48.68;100341.41;5004759;28;20050;-54
2023/01/12 11:04:51;;;;;;;0.85;0.68;;;;;;;18.48;48.43;100335.19;5005853;28;20030;-51
2023/01/12 11:07:18;;;;;;;1.00;0.60;;;;;;;18.49;48.46;100336.84;5005815;28;20376;-49
2023/01/12 11:09:44;;;;;;;0.77;0.60;;;;;;;18.49;48.76;100334.16;5006380;28;20026;-54
2023/01/12 11:12:28;;;;;;;0.65;0.63;;;;;;;18.53;48.64;100331.94;4999009;28;20080;-54
2023/01/12 11:15:03;;;;;;;0.73;0.60;;;;;;;18.52;48.91;100339.19;4986492;28;20030;-53
2023/01/12 11:17:37;;;;;;;1.35;0.60;;;;;;;18.53;48.43;100340.84;4996774;28;20110;-50
2023/01/12 11:20:08;;;;;;;1.45;0.70;;;;;;;18.55;48.47;100346.03;5005872;28;20054;-52
2023/01/12 11:22:35;;;;;;;0.88;0.80;;;;;;;18.52;48.58;100338.31;4988555;28;20031;-51
2023/01/12 11:25:05;;;;;;;0.95;0.60;;;;;;;18.55;48.58;100344.19;5004818;28;20180;-49
2023/01/12 11:27:35;;;;;;;0.82;0.63;;;;;;;18.54;48.67;100345.22;5004932;28;20109;-49
2023/01/12 11:30:11;;;;;;;1.08;0.60;;;;;;;18.56;48.88;100336.94;5004631;28;20022;-52
2023/01/12 11:32:42;;;;;;;1.20;0.70;;;;;;;18.56;48.98;100334.25;4995452;28;20040;-55
2023/01/12 11:35:26;;;;;;;0.68;0.55;;;;;;;18.55;48.75;100333.41;4993325;28;20026;-48
2023/01/12 11:37:54;;;;;;;0.60;0.60;;;;;;;18.57;48.74;100334.09;4996076;28;20070;-49
2023/01/12 11:40:31;;;;;;;0.70;0.50;;;;;;;18.55;48.83;100329.91;4993097;28;20034;-50
2023/01/12 11:45:58;;;;;;;1.45;0.98;;;;;;;18.55;49.08;100322.66;4994307;28;20392;-50
2023/01/12 11:48:38;;;;;;;0.90;0.60;;;;;;;18.57;48.64;100325.19;4984930;28;20146;-49
2023/01/12 11:51:03;;;;;;;0.85;0.60;;;;;;;18.57;49.04;100330.56;4984758;28;20027;-54
2023/01/12 11:53:29;;;;;;;1.30;0.60;;;;;;;18.54;48.78;100320.97;4986120;28;20089;-49
2023/01/12 11:56:07;;;;;;;1.00;0.70;;;;;;;18.57;48.83;100322.50;4992338;28;20022;-53
2023/01/12 11:58:34;;;;;;;1.95;0.77;;;;;;;18.58;48.79;100325.00;5005063;28;20050;-54
2023/01/12 12:01:07;;;;;;;1.25;0.80;;;;;;;18.58;48.92;100316.91;5005357;28;20030;-52
2023/01/12 12:03:53;;;;;;;0.98;0.90;;;;;;;18.61;48.79;100321.13;5003716;28;20034;-54